Time;durP1;ratioP1;P1;durP2;ratioP2;P2;SDS_P1;SDS_P2;PMS_P1;PMS_P2;Temp;Humidity;BMP_temperature;BMP_pressure;BME280_temperature;BME280_humidity;BME280_pressure;Samples;Min_cycle;Max_cycle;Signal;HPM_P1;HPM_P2
2023/04/26 00:03:14;;;;;;;3.03;1.30;;;;;;;4.55;100.00;98291.66;15280564;19;20025;-50
2023/04/26 00:08:42;;;;;;;2.83;1.17;;;;;;;4.52;100.00;98289.22;15280800;19;20014;-50
2023/04/26 00:14:08;;;;;;;3.33;1.30;;;;;;;4.45;100.00;98283.53;15282240;19;20028;-48
2023/04/26 00:19:32;;;;;;;4.40;1.20;;;;;;;4.40;100.00;98291.09;15279648;19;20054;-48
2023/04/26 00:25:00;;;;;;;2.60;1.20;;;;;;;4.34;100.00;98287.09;15272578;19;20036;-48
2023/04/26 00:30:26;;;;;;;4.85;1.40;;;;;;;4.28;100.00;98293.78;15280647;19;20346;-49
2023/04/26 00:35:52;;;;;;;3.70;1.42;;;;;;;4.21;100.00;98295.25;15273889;19;20010;-53
2023/04/26 00:41:20;;;;;;;3.95;1.35;;;;;;;4.17;100.00;98304.47;15278827;19;20014;-51
2023/04/26 00:46:45;;;;;;;2.75;1.20;;;;;;;4.18;100.00;98306.16;15276415;19;20022;-53
2023/04/26 00:52:10;;;;;;;4.55;1.48;;;;;;;4.12;100.00;98307.50;15277724;19;20355;-51
2023/04/26 00:57:44;;;;;;;3.33;1.30;;;;;;;4.09;100.00;98309.56;15274509;19;20030;-51
2023/04/26 01:03:09;;;;;;;3.88;1.63;;;;;;;4.07;100.00;98300.81;15276762;19;20019;-53
2023/04/26 01:08:34;;;;;;;3.03;1.40;;;;;;;4.04;100.00;98309.94;15276611;19;20420;-50
2023/04/26 01:14:01;;;;;;;4.57;1.40;;;;;;;4.00;100.00;98316.47;15275635;19;20109;-49
2023/04/26 01:19:27;;;;;;;3.67;1.30;;;;;;;3.99;100.00;98314.78;15274005;19;20375;-49
2023/04/26 01:24:58;;;;;;;3.92;1.40;;;;;;;3.92;100.00;98316.25;15263592;19;20017;-49
2023/04/26 01:30:23;;;;;;;3.83;1.40;;;;;;;3.89;100.00;98317.34;15276750;19;20028;-50
2023/04/26 01:35:47;;;;;;;3.22;1.20;;;;;;;3.80;100.00;98316.25;15273817;19;20409;-49
2023/04/26 01:41:16;;;;;;;3.10;1.35;;;;;;;3.70;100.00;98321.44;15276105;19;20018;-50
2023/04/26 01:46:33;;;;;;;4.80;1.50;;;;;;;3.61;100.00;98324.81;15269174;19;20011;-48
2023/04/26 01:51:58;;;;;;;6.15;1.63;;;;;;;3.53;100.00;98320.09;15276167;19;20025;-49
2023/04/26 01:57:26;;;;;;;3.42;1.40;;;;;;;3.47;100.00;98322.41;15268543;19;20091;-52
2023/04/26 02:02:50;;;;;;;3.78;1.45;;;;;;;3.42;100.00;98321.91;15274272;19;20018;-51
2023/04/26 02:08:15;;;;;;;2.65;1.50;;;;;;;3.41;100.00;98320.19;15273232;19;20015;-48
2023/04/26 02:13:42;;;;;;;3.95;1.40;;;;;;;3.31;100.00;98320.91;15276352;19;20017;-49
2023/04/26 02:19:09;;;;;;;3.47;1.75;;;;;;;3.25;100.00;98337.34;15275308;19;20050;-49
2023/04/26 02:24:34;;;;;;;4.70;1.40;;;;;;;3.08;100.00;98331.50;15277345;19;20010;-50
2023/04/26 02:30:02;;;;;;;4.22;1.52;;;;;;;3.14;100.00;98329.31;15270519;19;20006;-49
2023/04/26 02:35:27;;;;;;;3.13;1.55;;;;;;;3.08;100.00;98331.50;15274801;19;20357;-49
2023/04/26 02:40:52;;;;;;;4.05;1.88;;;;;;;3.06;100.00;98332.56;15273909;19;20010;-48
2023/04/26 02:46:20;;;;;;;2.67;1.40;;;;;;;2.97;100.00;98330.59;15269581;19;20749;-51
2023/04/26 02:51:46;;;;;;;4.93;1.60;;;;;;;2.87;100.00;98320.66;15273004;19;20491;-51
2023/04/26 02:57:17;;;;;;;7.18;1.90;;;;;;;2.77;100.00;98319.66;15272491;19;20019;-49
2023/04/26 03:02:44;;;;;;;4.77;1.50;;;;;;;2.62;100.00;98325.13;15281962;19;20099;-49
2023/04/26 03:08:09;;;;;;;4.68;1.70;;;;;;;2.56;100.00;98330.06;15287146;19;20026;-51
2023/04/26 03:13:33;;;;;;;5.55;1.40;;;;;;;2.38;100.00;98330.47;15287749;19;20021;-50
2023/04/26 03:19:01;;;;;;;4.93;1.60;;;;;;;2.18;100.00;98333.69;15288644;19;20011;-49
2023/04/26 03:24:25;;;;;;;4.93;1.70;;;;;;;1.96;100.00;98337.88;15283169;19;20022;-48
2023/04/26 03:29:50;;;;;;;4.20;1.83;;;;;;;1.82;100.00;98339.69;15286395;19;20018;-47
2023/04/26 03:35:18;;;;;;;4.60;1.80;;;;;;;1.73;100.00;98343.00;15278266;19;20019;-47
2023/04/26 03:40:44;;;;;;;5.47;1.70;;;;;;;1.71;100.00;98339.59;15283833;19;20318;-49
2023/04/26 03:46:08;;;;;;;7.07;1.90;;;;;;;1.65;100.00;98329.44;15281000;19;20006;-53
2023/04/26 03:51:36;;;;;;;4.65;1.75;;;;;;;1.59;100.00;98341.31;15280457;19;20015;-51
2023/04/26 03:57:00;;;;;;;3.75;1.77;;;;;;;1.56;100.00;98344.19;15277573;19;20019;-51
2023/04/26 04:02:25;;;;;;;6.50;2.00;;;;;;;1.53;100.00;98347.91;15275587;19;20090;-51
2023/04/26 04:07:55;;;;;;;7.68;1.90;;;;;;;1.56;100.00;98351.31;15276546;19;20014;-53
2023/04/26 04:13:20;;;;;;;5.68;2.10;;;;;;;1.58;100.00;98355.56;15281779;19;20014;-49
2023/04/26 04:18:45;;;;;;;5.75;1.90;;;;;;;1.63;100.00;98363.19;15280562;19;20024;-51
2023/04/26 04:24:14;;;;;;;5.63;1.70;;;;;;;1.61;100.00;98358.00;15275255;19;20019;-50
2023/04/26 04:29:39;;;;;;;9.25;2.08;;;;;;;1.57;100.00;98348.53;15275638;19;20519;-50
2023/04/26 04:35:05;;;;;;;6.25;1.70;;;;;;;1.51;100.00;98360.44;15275186;19;20010;-55
2023/04/26 04:40:37;;;;;;;6.15;2.08;;;;;;;1.49;100.00;98365.00;15276237;19;20033;-50
2023/04/26 04:46:02;;;;;;;5.20;1.90;;;;;;;1.48;100.00;98379.22;15276256;19;20430;-50
2023/04/26 04:51:29;;;;;;;4.22;1.92;;;;;;;1.45;100.00;98387.44;15282262;19;20014;-50
2023/04/26 04:57:01;;;;;;;5.03;2.00;;;;;;;1.46;100.00;98388.25;15275746;19;20424;-54
2023/04/26 05:02:30;;;;;;;7.13;2.38;;;;;;;1.48;100.00;98391.66;15277507;19;20340;-49
2023/04/26 05:07:56;;;;;;;4.43;2.08;;;;;;;1.53;100.00;98401.03;15277197;19;20093;-54
2023/04/26 05:13:24;;;;;;;8.60;2.10;;;;;;;1.61;100.00;98407.59;15274963;19;20026;-55
2023/04/26 05:18:49;;;;;;;5.63;1.90;;;;;;;1.70;100.00;98407.00;15276499;19;20022;-55
2023/04/26 05:24:17;;;;;;;6.50;2.13;;;;;;;1.79;100.00;98411.66;15274835;19;20025;-52
2023/04/26 05:29:48;;;;;;;5.22;1.92;;;;;;;1.89;100.00;98406.53;15274688;19;20026;-49
2023/04/26 05:35:32;;;;;;;4.88;2.03;;;;;;;2.00;100.00;98417.28;15273816;19;20838;-51
2023/04/26 05:41:00;;;;;;;5.10;2.10;;;;;;;2.11;100.00;98424.50;15274930;19;20022;-50
2023/04/26 05:46:29;;;;;;;6.93;1.77;;;;;;;2.26;100.00;98427.03;15268027;19;20033;-51
2023/04/26 05:51:55;;;;;;;5.45;2.13;;;;;;;2.39;100.00;98435.84;15273717;19;20026;-51
2023/04/26 05:57:27;;;;;;;6.70;2.17;;;;;;;2.57;100.00;98436.34;15271130;19;20014;-52
2023/04/26 06:02:54;;;;;;;5.43;2.20;;;;;;;2.72;100.00;98429.06;15275732;19;20467;-50
2023/04/26 06:08:27;;;;;;;7.07;2.20;;;;;;;2.96;100.00;98427.38;15272909;19;20364;-51
2023/04/26 06:13:52;;;;;;;5.30;1.80;;;;;;;3.31;100.00;98427.44;15275325;19;20017;-53
2023/04/26 06:19:22;;;;;;;4.40;1.80;;;;;;;3.45;100.00;98420.22;15270318;19;20466;-51
2023/04/26 06:24:49;;;;;;;5.90;1.92;;;;;;;3.66;100.00;98418.56;15273124;19;20614;-50
2023/04/26 06:30:17;;;;;;;5.45;1.60;;;;;;;3.79;100.00;98426.47;15274252;19;20375;-51
2023/04/26 06:35:47;;;;;;;5.93;1.70;;;;;;;3.95;100.00;98427.94;15283404;19;20018;-54
2023/04/26 06:41:14;;;;;;;8.88;2.05;;;;;;;4.07;100.00;98439.47;15287631;19;20019;-50
2023/04/26 06:46:39;;;;;;;5.03;1.73;;;;;;;4.27;100.00;98435.25;15281677;19;20014;-51
2023/04/26 06:52:12;;;;;;;6.07;1.50;;;;;;;4.35;100.00;98445.31;15286304;19;20025;-54
2023/04/26 06:57:42;;;;;;;4.40;1.40;;;;;;;4.47;100.00;98434.50;15279734;19;20022;-50
2023/04/26 07:03:09;;;;;;;6.47;1.60;;;;;;;4.69;100.00;98429.28;15284440;19;20029;-54
2023/04/26 07:08:37;;;;;;;4.03;1.30;;;;;;;4.67;100.00;98431.22;15287033;19;20010;-46
2023/04/26 07:14:04;;;;;;;6.90;1.70;;;;;;;4.77;100.00;98437.50;15289177;19;20014;-51
2023/04/26 07:19:28;;;;;;;5.75;1.60;;;;;;;4.87;100.00;98430.47;15263095;19;20038;-49
2023/04/26 07:24:57;;;;;;;4.95;1.40;;;;;;;5.07;100.00;98438.66;15283816;19;20045;-49
2023/04/26 07:30:21;;;;;;;5.45;1.48;;;;;;;4.99;100.00;98430.44;15287086;19;20032;-50
2023/04/26 07:35:46;;;;;;;5.78;1.48;;;;;;;5.35;100.00;98431.03;15285391;19;20022;-55
2023/04/26 07:41:15;;;;;;;5.60;1.63;;;;;;;5.29;100.00;98427.06;15286207;19;20014;-54
2023/04/26 07:46:41;;;;;;;9.57;1.92;;;;;;;5.39;100.00;98432.47;15280942;19;20018;-53
2023/04/26 07:52:06;;;;;;;6.32;1.70;;;;;;;5.33;100.00;98433.00;15281143;19;20016;-55
2023/04/26 07:57:41;;;;;;;9.07;1.52;;;;;;;5.46;100.00;98431.00;15282653;19;20101;-53
2023/04/26 08:03:06;;;;;;;7.05;1.60;;;;;;;5.70;100.00;98428.06;15284709;19;20404;-52
2023/04/26 08:08:32;;;;;;;5.10;1.30;;;;;;;5.85;100.00;98444.63;15281981;19;20018;-54
2023/04/26 08:13:59;;;;;;;5.20;1.23;;;;;;;5.75;100.00;98437.53;15285737;19;20014;-52
2023/04/26 08:19:25;;;;;;;3.40;1.23;;;;;;;5.58;100.00;98437.13;15287917;19;20026;-52
2023/04/26 08:24:51;;;;;;;2.63;1.08;;;;;;;5.73;100.00;98434.97;15281398;19;20014;-51
2023/04/26 08:30:20;;;;;;;6.80;1.27;;;;;;;6.13;100.00;98439.63;15285123;19;20025;-52
2023/04/26 08:35:46;;;;;;;4.32;1.40;;;;;;;6.51;100.00;98433.75;15286828;19;20552;-54
2023/04/26 08:41:12;;;;;;;4.00;1.10;;;;;;;6.11;100.00;98454.94;15300316;19;20006;-50
2023/04/26 08:46:54;;;;;;;4.68;1.20;;;;;;;6.06;100.00;98446.47;15356630;19;20007;-52
2023/04/26 08:52:22;;;;;;;5.43;1.20;;;;;;;5.92;100.00;98450.28;15345958;19;20022;-53
2023/04/26 08:57:55;;;;;;;3.30;1.20;;;;;;;5.91;100.00;98450.44;15326492;19;20011;-55
2023/04/26 09:03:25;;;;;;;3.83;1.10;;;;;;;6.00;100.00;98445.16;15288269;19;20100;-51
2023/04/26 09:08:52;;;;;;;4.87;1.07;;;;;;;6.44;100.00;98444.13;15277338;19;20019;-49
2023/04/26 09:14:17;;;;;;;3.85;1.00;;;;;;;6.56;100.00;98443.06;15277502;19;20021;-54
2023/04/26 09:19:48;;;;;;;2.92;0.90;;;;;;;6.45;100.00;98435.97;15279432;19;20045;-51
2023/04/26 09:25:15;;;;;;;2.97;0.90;;;;;;;6.59;100.00;98433.91;15277682;19;20018;-52
2023/04/26 09:30:47;;;;;;;2.83;0.98;;;;;;;6.92;100.00;98431.88;15272576;19;20045;-57
2023/04/26 09:36:17;;;;;;;3.80;0.80;;;;;;;6.54;100.00;98434.31;15276857;19;20039;-49
2023/04/26 09:41:52;;;;;;;3.00;0.80;;;;;;;6.50;86.50;98432.88;15277848;19;20017;-49
2023/04/26 09:47:16;;;;;;;3.70;0.93;;;;;;;6.56;99.11;98440.38;15273776;19;20014;-55
2023/04/26 09:52:51;;;;;;;4.03;1.20;;;;;;;6.42;100.00;98438.91;15275912;19;20035;-50
2023/04/26 09:58:22;;;;;;;3.08;1.05;;;;;;;6.26;100.00;98444.75;15269785;19;20471;-48
2023/04/26 10:03:47;;;;;;;3.10;1.00;;;;;;;6.32;100.00;98443.34;15271226;19;20017;-49
2023/04/26 10:09:17;;;;;;;4.15;1.10;;;;;;;6.38;100.00;98434.81;15286846;19;20473;-52
2023/04/26 10:14:43;;;;;;;3.40;1.35;;;;;;;6.35;87.79;98451.13;15289621;19;20938;-54
2023/04/26 10:20:10;;;;;;;3.72;0.90;;;;;;;6.23;90.01;98455.72;15290964;19;20014;-49
2023/04/26 10:25:41;;;;;;;3.13;1.10;;;;;;;6.27;100.00;98453.63;15286211;19;20390;-49
2023/04/26 10:31:09;;;;;;;3.03;1.30;;;;;;;6.34;100.00;98454.78;15289094;19;20370;-49
2023/04/26 10:36:33;;;;;;;3.90;1.60;;;;;;;6.69;100.00;98452.69;15281921;19;20010;-50
2023/04/26 10:42:29;;;;;;;3.03;1.30;;;;;;;7.10;100.00;98440.09;15289441;19;20025;-55
2023/04/26 10:48:22;;;;;;;3.35;1.08;;;;;;;7.09;93.02;98443.75;15284558;19;20014;-52
2023/04/26 10:54:04;;;;;;;3.35;0.90;;;;;;;7.06;81.57;98436.84;15289078;19;20010;-54
2023/04/26 10:59:39;;;;;;;2.95;0.93;;;;;;;7.51;76.37;98437.28;15287379;19;20011;-54
2023/04/26 11:05:12;;;;;;;2.72;0.98;;;;;;;7.71;64.66;98433.59;15284333;19;20351;-51
2023/04/26 11:10:38;;;;;;;3.05;1.00;;;;;;;7.92;65.93;98415.66;15286857;19;20014;-52
2023/04/26 11:16:07;;;;;;;3.53;1.00;;;;;;;7.89;71.37;98427.53;15283779;19;20015;-48
2023/04/26 11:21:31;;;;;;;3.28;1.00;;;;;;;7.37;72.72;98426.00;15285652;19;20019;-51
2023/04/26 11:26:57;;;;;;;3.22;1.00;;;;;;;7.34;74.19;98431.66;15281119;19;20018;-47
2023/04/26 11:32:24;;;;;;;4.05;1.00;;;;;;;7.26;72.03;98439.53;15285212;19;20018;-52
2023/04/26 11:37:50;;;;;;;2.28;1.02;;;;;;;7.49;82.73;98420.50;15282195;19;20089;-54
2023/04/26 11:43:18;;;;;;;3.97;0.80;;;;;;;7.53;84.04;98425.44;15284487;19;20018;-49
2023/04/26 11:48:46;;;;;;;3.60;1.00;;;;;;;7.34;83.81;98426.31;15279231;19;20007;-51
2023/04/26 11:54:11;;;;;;;4.97;1.10;;;;;;;7.50;87.99;98417.69;15283700;19;20014;-50
2023/04/26 11:59:42;;;;;;;2.72;0.90;;;;;;;7.54;82.77;98421.75;15285927;19;20114;-49
2023/04/26 12:05:10;;;;;;;3.13;0.87;;;;;;;8.09;74.06;98408.69;15279893;19;20015;-52
2023/04/26 12:10:37;;;;;;;2.05;0.80;;;;;;;8.48;69.21;98413.94;15278729;19;20006;-52
2023/04/26 12:16:02;;;;;;;2.58;0.90;;;;;;;8.08;62.53;98428.44;15279748;19;20015;-50
2023/04/26 12:21:52;;;;;;;3.65;1.00;;;;;;;7.96;65.29;98431.31;15279373;19;20021;-53
2023/04/26 12:27:23;;;;;;;4.03;0.90;;;;;;;8.02;65.75;98430.75;15278831;19;20025;-53
2023/04/26 12:32:47;;;;;;;3.63;0.87;;;;;;;7.98;64.54;98410.56;15280126;19;20023;-48
2023/04/26 12:38:22;;;;;;;3.53;1.00;;;;;;;8.00;64.33;98419.31;15281820;19;20018;-52
2023/04/26 12:43:47;;;;;;;1.65;0.70;;;;;;;7.84;62.24;98413.69;15277148;19;20021;-53
2023/04/26 12:49:11;;;;;;;2.33;0.85;;;;;;;7.93;66.44;98420.88;15275264;19;20740;-50
2023/04/26 12:54:39;;;;;;;3.28;1.00;;;;;;;8.10;67.85;98423.78;15279174;19;20011;-50
2023/04/26 13:00:04;;;;;;;2.78;0.98;;;;;;;8.24;68.04;98411.72;15279979;19;20608;-50
2023/04/26 13:05:28;;;;;;;2.90;0.90;;;;;;;8.30;64.25;98412.00;15277488;19;20022;-51
2023/04/26 13:10:57;;;;;;;2.65;0.95;;;;;;;8.58;68.95;98421.97;15278132;19;20037;-50
2023/04/26 13:16:23;;;;;;;2.55;0.95;;;;;;;8.79;66.96;98425.25;15271035;19;20374;-53
2023/04/26 13:21:49;;;;;;;3.05;1.00;;;;;;;8.88;63.67;98423.47;15280026;19;20023;-47
2023/04/26 13:27:16;;;;;;;4.35;0.90;;;;;;;9.01;64.49;98424.97;15275017;19;20041;-47
2023/04/26 13:32:42;;;;;;;1.95;0.90;;;;;;;8.77;65.59;98429.06;15275522;19;20049;-50
2023/04/26 13:38:08;;;;;;;3.30;0.80;;;;;;;8.75;69.50;98433.75;15275948;19;20010;-50
2023/04/26 13:43:37;;;;;;;1.67;0.80;;;;;;;8.54;65.36;98417.88;15275659;19;20021;-51
2023/04/26 13:49:04;;;;;;;4.30;1.10;;;;;;;8.31;66.10;98424.44;15268457;19;20037;-53
2023/04/26 13:54:29;;;;;;;2.92;0.95;;;;;;;8.53;68.47;98416.19;15265673;19;20026;-48
2023/04/26 13:59:56;;;;;;;2.10;0.80;;;;;;;8.60;66.45;98425.31;15269654;19;20018;-45
2023/04/26 14:05:24;;;;;;;4.40;1.00;;;;;;;8.38;63.67;98426.53;15279822;19;20022;-45
2023/04/26 14:10:48;;;;;;;2.75;0.90;;;;;;;8.47;69.07;98433.69;15280676;19;20055;-44
2023/04/26 14:16:16;;;;;;;5.28;1.15;;;;;;;8.46;65.35;98427.50;15280993;19;20094;-53
2023/04/26 14:21:40;;;;;;;1.92;0.77;;;;;;;8.60;64.24;98428.88;15270234;19;20861;-46
2023/04/26 14:27:05;;;;;;;4.82;0.93;;;;;;;9.18;65.53;98442.09;15265686;19;20010;-46
2023/04/26 14:32:32;;;;;;;1.70;0.80;;;;;;;9.53;63.18;98430.53;15270770;19;20039;-45
2023/04/26 14:37:57;;;;;;;1.67;0.70;;;;;;;9.35;59.30;98421.63;15267404;19;20019;-46
2023/04/26 14:43:21;;;;;;;2.53;0.80;;;;;;;9.43;62.98;98423.53;15269210;19;20352;-50
2023/04/26 14:48:48;;;;;;;5.07;1.02;;;;;;;9.33;62.76;98426.31;15265381;19;20102;-45
2023/04/26 14:54:14;;;;;;;3.58;0.70;;;;;;;9.27;63.91;98426.91;15272199;19;20094;-46
2023/04/26 14:59:39;;;;;;;1.30;0.73;;;;;;;9.14;63.02;98433.50;15287533;19;20073;-45
2023/04/26 15:05:06;;;;;;;2.90;0.95;;;;;;;9.36;60.57;98442.13;15281593;19;20062;-50
2023/04/26 15:10:32;;;;;;;2.28;0.98;;;;;;;9.65;63.16;98444.56;15284098;19;20022;-48
2023/04/26 15:15:56;;;;;;;3.40;1.00;;;;;;;8.98;60.52;98441.41;15280104;19;20479;-46
2023/04/26 15:21:27;;;;;;;2.83;0.95;;;;;;;8.73;60.83;98441.94;15284084;19;20025;-46
2023/04/26 15:26:52;;;;;;;2.92;1.00;;;;;;;8.81;62.95;98432.31;15273628;19;20037;-50
2023/04/26 15:32:17;;;;;;;2.08;0.98;;;;;;;8.55;61.24;98431.16;15283732;19;20018;-48
2023/04/26 15:37:46;;;;;;;3.20;0.90;;;;;;;8.31;60.23;98439.69;15278059;19;20035;-47
2023/04/26 15:43:12;;;;;;;2.28;1.08;;;;;;;8.43;64.44;98426.94;14772163;19;10000545;-48
2023/04/26 15:48:43;;;;;;;2.67;1.00;;;;;;;8.36;64.31;98433.88;15278152;19;20010;-45
2023/04/26 15:54:10;;;;;;;4.87;0.90;;;;;;;8.32;64.63;98431.50;15280746;19;20019;-47
2023/04/26 15:59:35;;;;;;;3.25;0.90;;;;;;;8.18;62.63;98429.28;15277421;19;20027;-45
2023/04/26 16:05:00;;;;;;;2.45;1.00;;;;;;;8.17;62.18;98433.81;15274603;19;20078;-47
2023/04/26 16:10:28;;;;;;;3.42;1.05;;;;;;;8.30;63.32;98429.94;15274061;19;20018;-49
2023/04/26 16:15:56;;;;;;;2.17;0.90;;;;;;;8.30;66.02;98436.16;15279006;19;20014;-50
2023/04/26 16:21:21;;;;;;;3.35;1.15;;;;;;;8.22;64.69;98432.53;15280597;19;20014;-48
2023/04/26 16:26:48;;;;;;;2.60;0.98;;;;;;;8.24;64.51;98417.97;15275676;19;20022;-46
2023/04/26 16:32:13;;;;;;;5.38;1.00;;;;;;;8.14;67.27;98414.47;15273587;19;20097;-46
2023/04/26 16:37:39;;;;;;;2.00;0.90;;;;;;;8.15;67.16;98418.84;15272574;19;20025;-49
2023/04/26 16:43:08;;;;;;;1.70;0.90;;;;;;;8.11;69.30;98412.06;15281408;19;20018;-46
2023/04/26 16:48:34;;;;;;;3.38;0.98;;;;;;;8.17;67.63;98412.34;15277124;19;20094;-46
2023/04/26 16:53:58;;;;;;;5.55;1.00;;;;;;;8.12;70.41;98424.50;15276622;19;20417;-47
2023/04/26 16:59:27;;;;;;;4.75;1.10;;;;;;;7.98;69.77;98423.97;15277978;19;20014;-47
2023/04/26 17:04:52;;;;;;;4.65;1.15;;;;;;;7.84;73.62;98422.59;15273142;19;20632;-48
2023/04/26 17:10:17;;;;;;;3.13;1.20;;;;;;;8.00;70.17;98419.31;15275507;19;20011;-51
2023/04/26 17:15:44;;;;;;;2.55;1.05;;;;;;;8.20;67.78;98426.47;15275700;19;20024;-49
2023/04/26 17:21:10;;;;;;;2.88;0.95;;;;;;;8.09;67.91;98428.31;15278452;19;20029;-50
2023/04/26 17:26:34;;;;;;;5.07;1.13;;;;;;;8.10;69.38;98431.84;15275892;19;20833;-46
2023/04/26 17:32:01;;;;;;;2.88;1.00;;;;;;;7.88;67.20;98438.41;15278349;19;20034;-46
2023/04/26 17:37:27;;;;;;;2.47;1.10;;;;;;;7.72;70.65;98442.50;15270258;19;20024;-47
2023/04/26 17:42:58;;;;;;;3.72;1.10;;;;;;;7.59;71.71;98448.13;15272700;19;20015;-46
2023/04/26 17:48:27;;;;;;;2.30;1.00;;;;;;;7.48;71.35;98445.59;15277087;19;20481;-46
2023/04/26 17:53:52;;;;;;;1.73;1.00;;;;;;;7.40;73.67;98447.16;15213121;19;20455;-46
2023/04/26 17:59:17;;;;;;;2.60;1.10;;;;;;;7.31;73.10;98452.50;15277798;19;20018;-50
2023/04/26 18:04:45;;;;;;;2.63;1.08;;;;;;;7.21;77.86;98460.56;15278484;19;20011;-46
2023/04/26 18:10:11;;;;;;;1.88;0.95;;;;;;;7.07;80.88;98457.28;15271035;19;20015;-46
2023/04/26 18:15:36;;;;;;;1.70;1.00;;;;;;;6.98;88.26;98466.16;15274254;19;20020;-48
2023/04/26 18:21:03;;;;;;;2.55;0.93;;;;;;;6.83;87.36;98464.84;15277058;19;20014;-46
2023/04/26 18:26:28;;;;;;;2.15;1.00;;;;;;;6.75;86.12;98471.72;15274329;19;20258;-47
2023/04/26 18:31:56;;;;;;;3.33;1.25;;;;;;;6.69;89.08;98480.28;15290888;19;20482;-46
2023/04/26 18:37:24;;;;;;;4.32;1.08;;;;;;;6.63;88.51;98489.72;15281600;19;20035;-46
2023/04/26 18:42:49;;;;;;;2.90;1.10;;;;;;;6.56;90.37;98490.38;15290939;19;20011;-46
2023/04/26 18:48:16;;;;;;;2.20;1.02;;;;;;;6.53;92.46;98486.16;15289637;19;20017;-46
2023/04/26 18:53:43;;;;;;;3.97;1.20;;;;;;;6.45;97.04;98494.84;15287836;19;20021;-45
2023/04/26 18:59:16;;;;;;;4.13;1.08;;;;;;;6.45;98.21;98499.34;15290601;19;20093;-46
2023/04/26 19:04:42;;;;;;;2.17;0.90;;;;;;;6.49;100.00;98503.44;15287329;19;20010;-46
2023/04/26 19:10:10;;;;;;;5.25;1.50;;;;;;;6.43;100.00;98512.84;15280964;19;20006;-47
2023/04/26 19:15:36;;;;;;;2.85;1.20;;;;;;;6.40;100.00;98515.81;15285888;19;20678;-47
2023/04/26 19:21:00;;;;;;;2.90;1.20;;;;;;;6.31;100.00;98519.25;15286290;19;20017;-48
2023/04/26 19:26:28;;;;;;;2.72;1.45;;;;;;;6.22;100.00;98514.69;15279964;19;20774;-46
2023/04/26 19:31:54;;;;;;;1.95;1.00;;;;;;;6.09;100.00;98521.09;15279787;19;20834;-49
2023/04/26 19:37:19;;;;;;;4.53;1.20;;;;;;;6.08;100.00;98513.22;15275360;19;20029;-47
2023/04/26 19:42:46;;;;;;;2.40;1.20;;;;;;;6.09;100.00;98514.91;15278247;19;20011;-44
2023/04/26 19:48:11;;;;;;;3.28;1.15;;;;;;;6.08;100.00;98518.56;15286257;19;20014;-48
2023/04/26 19:53:36;;;;;;;2.58;1.30;;;;;;;6.01;100.00;98518.22;15281619;19;20020;-79
2023/04/26 19:59:05;;;;;;;4.40;1.63;;;;;;;5.93;100.00;98521.50;15310494;19;20537;-79
2023/04/26 20:04:32;;;;;;;4.53;1.80;;;;;;;5.82;100.00;98529.59;15317188;19;20035;-78
2023/04/26 20:09:58;;;;;;;3.15;1.58;;;;;;;5.67;100.00;98518.38;15312048;19;20074;-79
2023/04/26 20:15:43;;;;;;;4.13;1.77;;;;;;;5.61;100.00;98521.53;15337571;19;20019;-80
2023/04/26 20:21:10;;;;;;;3.33;1.50;;;;;;;5.53;100.00;98520.34;15332367;19;20037;-79
2023/04/26 20:26:42;;;;;;;1.73;1.15;;;;;;;5.46;100.00;98521.84;15330631;19;20010;-80
2023/04/26 20:32:08;;;;;;;2.83;1.48;;;;;;;5.38;100.00;98522.47;15328224;19;20006;-78
2023/04/26 20:37:35;;;;;;;3.17;1.33;;;;;;;5.30;100.00;98524.91;15300302;19;20010;-79
2023/04/26 20:43:00;;;;;;;2.33;1.13;;;;;;;5.21;100.00;98531.88;15297306;19;20078;-78
2023/04/26 20:48:24;;;;;;;2.75;1.33;;;;;;;5.13;100.00;98531.63;15296475;19;20024;-78
2023/04/26 20:53:58;;;;;;;2.60;1.50;;;;;;;5.06;100.00;98533.09;15297947;19;20082;-78
2023/04/26 20:59:23;;;;;;;1.70;1.30;;;;;;;5.01;100.00;98532.59;15301300;19;20027;-77
2023/04/26 21:04:47;;;;;;;4.35;1.40;;;;;;;4.93;100.00;98536.75;15297958;19;20015;-78
2023/04/26 21:10:16;;;;;;;5.90;1.30;;;;;;;4.88;100.00;98544.25;15296733;19;20405;-78
2023/04/26 21:15:42;;;;;;;2.88;1.55;;;;;;;4.80;100.00;98536.03;15299425;19;20484;-78
2023/04/26 21:21:08;;;;;;;3.08;1.48;;;;;;;4.74;100.00;98544.53;15297403;19;20066;-78
2023/04/26 21:26:35;;;;;;;2.28;1.30;;;;;;;4.70;100.00;98540.38;15298229;19;20006;-78
2023/04/26 21:37:26;;;;;;;2.60;1.30;;;;;;;4.54;100.00;98538.91;15352892;19;20028;-78
2023/04/26 21:43:00;;;;;;;3.33;1.42;;;;;;;4.50;100.00;98544.63;15352534;19;20013;-79
2023/04/26 21:48:25;;;;;;;5.18;1.40;;;;;;;4.44;100.00;98552.16;15341929;19;20046;-79
2023/04/26 21:53:49;;;;;;;2.70;1.23;;;;;;;4.37;100.00;98548.22;15293757;19;20025;-78
2023/04/26 21:59:18;;;;;;;3.40;1.40;;;;;;;4.30;100.00;98553.19;15294593;19;20018;-79
2023/04/26 22:04:42;;;;;;;3.67;1.40;;;;;;;4.24;100.00;98552.81;15290117;19;20029;-77
2023/04/26 22:10:08;;;;;;;3.35;1.50;;;;;;;4.16;100.00;98542.75;15290008;19;20023;-78
2023/04/26 22:15:35;;;;;;;3.35;1.60;;;;;;;4.12;100.00;98538.63;15291931;19;20010;-78
2023/04/26 22:21:00;;;;;;;6.07;1.75;;;;;;;4.05;100.00;98553.41;15289788;19;20006;-77
2023/04/26 22:26:24;;;;;;;3.03;1.70;;;;;;;4.01;100.00;98553.63;15268108;19;20017;-77
2023/04/26 22:31:53;;;;;;;2.45;1.55;;;;;;;3.99;100.00;98560.88;15276027;19;20361;-77
2023/04/26 22:37:18;;;;;;;5.25;1.70;;;;;;;3.93;100.00;98557.81;15283557;19;20090;-78
2023/04/26 22:42:43;;;;;;;3.35;1.60;;;;;;;3.90;100.00;98556.25;15287113;19;20350;-79
2023/04/26 22:48:11;;;;;;;3.15;1.52;;;;;;;3.84;100.00;98556.69;15296137;19;20046;-79
2023/04/26 22:53:36;;;;;;;3.15;1.50;;;;;;;3.74;100.00;98558.34;15285142;19;20074;-78
2023/04/26 22:59:07;;;;;;;4.53;1.63;;;;;;;3.70;100.00;98561.22;15282718;19;20022;-79
2023/04/26 23:04:34;;;;;;;4.77;1.70;;;;;;;3.67;100.00;98555.28;15285142;19;20036;-79
2023/04/26 23:09:59;;;;;;;3.28;1.38;;;;;;;3.60;100.00;98565.56;15283838;19;20308;-78
2023/04/26 23:15:24;;;;;;;2.85;1.50;;;;;;;3.58;100.00;98550.66;15292421;19;20021;-79
2023/04/26 23:20:52;;;;;;;3.55;1.50;;;;;;;3.50;100.00;98562.75;15303719;19;20098;-78
2023/04/26 23:26:17;;;;;;;2.58;1.40;;;;;;;3.46;100.00;98563.06;15313377;19;20006;-78
2023/04/26 23:31:41;;;;;;;3.95;1.50;;;;;;;3.40;100.00;98569.72;15340886;19;20021;-78
2023/04/26 23:37:08;;;;;;;2.47;1.40;;;;;;;3.36;100.00;98569.06;15294696;19;20014;-78
2023/04/26 23:42:33;;;;;;;2.63;1.60;;;;;;;3.32;100.00;98572.91;15290743;19;20082;-77
2023/04/26 23:47:58;;;;;;;2.45;1.40;;;;;;;3.29;100.00;98577.63;15292720;19;20023;-78
2023/04/26 23:53:26;;;;;;;3.53;1.58;;;;;;;3.22;100.00;98572.72;15289879;19;20018;-77
2023/04/26 23:58:57;;;;;;;4.22;1.60;;;;;;;3.18;100.00;98579.22;15289888;19;20014;-79
